Time;durP1;ratioP1;P1;durP2;ratioP2;P2;SDS_P1;SDS_P2;PMS_P1;PMS_P2;Temp;Humidity;BMP_temperature;BMP_pressure;BME280_temperature;BME280_humidity;BME280_pressure;Samples;Min_cycle;Max_cycle;Signal;HPM_P1;HPM_P2
2023/06/20 00:01:06;;;;;;;4.77;1.00;;;;;;;17.07;66.55;99991.31;5029616;28;20791;-57
2023/06/20 00:03:37;;;;;;;3.47;1.10;;;;;;;17.26;62.98;99996.59;5032167;28;20287;-56
2023/06/20 00:06:08;;;;;;;1.00;0.80;;;;;;;17.14;63.24;99998.03;5044393;28;20271;-58
2023/06/20 00:08:38;;;;;;;1.03;0.80;;;;;;;17.37;64.76;100004.00;5033971;28;20714;-57
2023/06/20 00:11:09;;;;;;;4.73;0.80;;;;;;;17.42;62.66;100001.97;5044104;28;20775;-58
2023/06/20 00:13:43;;;;;;;2.23;1.10;;;;;;;17.46;63.03;100004.41;5033867;28;20293;-58
2023/06/20 00:16:13;;;;;;;2.20;0.67;;;;;;;17.45;62.55;100001.84;5044599;28;20322;-57
2023/06/20 00:18:44;;;;;;;4.37;0.90;;;;;;;17.50;63.14;100005.13;5033534;28;20283;-56
2023/06/20 00:21:14;;;;;;;4.93;1.30;;;;;;;17.69;64.14;100005.91;5043846;28;20302;-60
2023/06/20 00:23:45;;;;;;;4.93;0.80;;;;;;;17.63;62.17;100005.38;5033674;28;20363;-58
2023/06/20 00:26:15;;;;;;;4.60;0.73;;;;;;;17.58;62.82;100013.53;5043553;28;20279;-57
2023/06/20 00:28:47;;;;;;;5.63;1.00;;;;;;;17.78;62.56;99998.47;5033750;28;20279;-57
2023/06/20 00:31:18;;;;;;;4.93;0.87;;;;;;;17.93;63.77;100000.34;5044188;28;20787;-58
2023/06/20 00:33:49;;;;;;;4.27;0.90;;;;;;;18.14;61.36;100000.19;5033523;28;20286;-58
2023/06/20 00:36:25;;;;;;;3.00;1.13;;;;;;;18.26;60.78;99999.53;5043544;28;20350;-57
2023/06/20 00:38:56;;;;;;;2.80;1.30;;;;;;;18.22;60.16;99992.69;5033654;28;20310;-58
2023/06/20 00:41:27;;;;;;;3.43;0.90;;;;;;;17.57;60.49;99911.44;5043644;28;20830;-56
2023/06/20 00:44:02;;;;;;;1.17;0.90;;;;;;;18.18;60.69;99988.53;5033212;28;20293;-57
2023/06/20 00:46:34;;;;;;;2.60;0.80;;;;;;;18.20;61.16;99989.31;5039859;28;20302;-56
2023/06/20 00:49:07;;;;;;;3.80;0.93;;;;;;;18.22;59.72;99987.41;5031814;28;20378;-59
2023/06/20 00:51:40;;;;;;;2.27;1.00;;;;;;;18.34;59.65;99986.75;5007624;28;20291;-55
2023/06/20 00:54:11;;;;;;;3.33;1.13;;;;;;;18.40;60.14;99986.47;5004926;28;20427;-58
2023/06/20 00:56:43;;;;;;;2.47;0.90;;;;;;;18.59;59.67;99985.47;4995143;28;20324;-56
2023/06/20 00:59:15;;;;;;;4.10;0.97;;;;;;;18.45;58.80;99973.00;5010147;28;20271;-58
2023/06/20 01:01:45;;;;;;;1.43;0.90;;;;;;;18.43;59.97;99986.28;4999112;28;20631;-58
2023/06/20 01:04:16;;;;;;;1.13;0.80;;;;;;;18.32;59.87;99983.34;5011243;28;20288;-58
2023/06/20 01:06:53;;;;;;;3.30;1.00;;;;;;;18.43;61.84;99969.56;5003719;28;20283;-58
2023/06/20 01:09:31;;;;;;;1.20;0.80;;;;;;;18.48;61.04;99968.38;5012707;28;20346;-58
2023/06/20 01:12:08;;;;;;;6.10;0.87;;;;;;;18.25;59.91;99939.66;4994747;28;20747;-58
2023/06/20 01:14:48;;;;;;;1.63;0.70;;;;;;;18.44;58.04;99958.03;4976219;28;20289;-58
2023/06/20 01:17:24;;;;;;;1.43;0.93;;;;;;;18.69;58.98;99973.44;4985409;28;20280;-58
2023/06/20 01:20:05;;;;;;;4.63;1.77;;;;;;;18.77;57.98;99968.63;4976318;28;20276;-58
2023/06/20 01:23:05;;;;;;;2.77;0.90;;;;;;;18.69;58.97;99970.78;4976252;28;21075;-55
2023/06/20 01:25:46;;;;;;;2.43;0.97;;;;;;;18.81;60.00;99962.22;4955810;28;20272;-55
2023/06/20 01:28:26;;;;;;;1.20;0.90;;;;;;;18.84;59.33;99954.09;4993624;28;20281;-57
2023/06/20 01:31:05;;;;;;;1.70;0.80;;;;;;;18.98;58.46;99965.72;4976032;28;20346;-56
2023/06/20 01:33:43;;;;;;;1.80;0.80;;;;;;;19.11;59.18;99958.78;4975898;28;20285;-57
2023/06/20 01:36:16;;;;;;;2.77;0.90;;;;;;;19.11;57.37;99945.56;4984892;28;20403;-58
2023/06/20 01:38:51;;;;;;;2.87;0.70;;;;;;;19.16;57.42;99949.63;4975153;28;20538;-57
2023/06/20 01:41:24;;;;;;;2.50;0.90;;;;;;;19.30;56.73;99951.50;4984922;28;20632;-57
2023/06/20 01:43:58;;;;;;;1.93;0.87;;;;;;;19.27;56.59;99951.69;4986412;28;20318;-58
2023/06/20 01:46:28;;;;;;;2.10;0.77;;;;;;;19.33;57.67;99946.03;5005273;28;20371;-58
2023/06/20 01:49:01;;;;;;;1.37;0.63;;;;;;;19.29;55.37;99943.63;5005546;28;20294;-58
2023/06/20 01:51:32;;;;;;;11.00;1.30;;;;;;;19.33;56.21;99938.06;5023255;28;20337;-56
2023/06/20 01:54:06;;;;;;;5.70;0.90;;;;;;;19.28;58.46;99937.50;4993466;28;20401;-57
2023/06/20 01:56:36;;;;;;;1.50;1.00;;;;;;;19.36;56.89;99932.59;5002777;28;20358;-57
2023/06/20 01:59:09;;;;;;;2.40;0.77;;;;;;;19.42;56.81;99927.88;5004604;28;20315;-57
2023/06/20 02:01:42;;;;;;;3.50;1.00;;;;;;;19.50;58.42;99930.97;4994961;28;20276;-56
2023/06/20 02:04:17;;;;;;;3.40;0.80;;;;;;;19.59;57.86;99936.56;5004978;28;20683;-57
2023/06/20 02:06:48;;;;;;;21.17;1.20;;;;;;;19.53;56.93;99942.22;4995274;28;20292;-57
2023/06/20 02:09:21;;;;;;;2.30;0.70;;;;;;;19.37;57.58;99947.56;5004595;28;21150;-58
2023/06/20 02:11:52;;;;;;;1.80;0.90;;;;;;;19.31;57.80;99942.59;4994885;28;20286;-57
2023/06/20 02:14:23;;;;;;;10.30;1.20;;;;;;;19.32;57.32;99930.22;5022955;28;20371;-57
2023/06/20 02:16:56;;;;;;;2.23;1.20;;;;;;;19.54;57.10;99941.25;5013883;28;20292;-57
2023/06/20 02:19:27;;;;;;;1.97;0.93;;;;;;;19.29;57.15;99935.69;5024080;28;20280;-57
2023/06/20 02:21:58;;;;;;;4.47;1.20;;;;;;;19.37;57.02;99942.28;5017119;28;20291;-56
2023/06/20 02:24:34;;;;;;;2.23;0.83;;;;;;;19.42;56.89;99933.19;5027703;28;20376;-58
2023/06/20 02:27:07;;;;;;;2.33;0.83;;;;;;;19.36;56.37;99908.75;5036622;28;20776;-58
2023/06/20 02:29:39;;;;;;;1.07;0.70;;;;;;;19.58;57.19;99934.00;5036715;28;20279;-59
2023/06/20 02:32:13;;;;;;;5.07;0.90;;;;;;;19.50;57.62;99918.56;5046886;28;20279;-58
2023/06/20 02:34:46;;;;;;;4.20;1.00;;;;;;;19.67;58.49;99932.59;5036651;28;20283;-57
2023/06/20 02:37:17;;;;;;;3.07;0.90;;;;;;;19.59;57.33;99925.09;5007608;28;21347;-57
2023/06/20 02:39:50;;;;;;;6.53;1.00;;;;;;;19.81;58.03;99919.41;4997233;28;20296;-57
2023/06/20 02:42:21;;;;;;;5.57;1.40;;;;;;;19.98;58.03;99910.44;5007149;28;20345;-58
2023/06/20 02:44:51;;;;;;;12.03;2.00;;;;;;;19.87;58.37;99907.56;5021702;28;20287;-58
2023/06/20 02:47:36;;;;;;;2.83;0.93;;;;;;;19.87;57.16;99919.06;5027138;28;20287;-56
2023/06/20 02:50:16;;;;;;;5.73;1.10;;;;;;;19.80;57.23;99907.94;5035635;28;20318;-57
2023/06/20 02:52:49;;;;;;;6.60;1.10;;;;;;;19.91;57.00;99903.78;5015855;28;20276;-57
2023/06/20 02:55:27;;;;;;;14.70;1.80;;;;;;;19.99;58.66;99897.09;5026747;28;20297;-57
2023/06/20 02:58:01;;;;;;;5.60;1.30;;;;;;;20.08;58.34;99895.66;5015410;28;20275;-58
2023/06/20 03:00:32;;;;;;;3.10;1.27;;;;;;;20.35;59.22;99897.56;5034616;28;20056;-57
2023/06/20 03:03:09;;;;;;;1.63;0.73;;;;;;;20.29;55.96;99893.47;5035026;28;20722;-56
2023/06/20 03:05:44;;;;;;;5.70;1.00;;;;;;;20.38;57.67;99902.66;5030026;28;20781;-57
2023/06/20 03:08:17;;;;;;;8.80;1.40;;;;;;;19.80;59.26;99812.50;5034741;28;20308;-57
2023/06/20 03:10:52;;;;;;;3.77;1.03;;;;;;;20.29;58.18;99897.91;5027036;28;20617;-58
2023/06/20 03:13:23;;;;;;;6.80;1.50;;;;;;;20.30;57.43;99865.16;5046411;28;20360;-57
2023/06/20 03:15:55;;;;;;;7.03;2.40;;;;;;;20.43;58.34;99901.41;5035941;28;20351;-58
2023/06/20 03:18:29;;;;;;;8.67;1.80;;;;;;;20.31;57.89;99907.50;5042341;28;20301;-56
2023/06/20 03:21:00;;;;;;;3.03;0.87;;;;;;;20.26;57.56;99910.44;5030937;28;20369;-58
2023/06/20 03:23:37;;;;;;;7.10;1.23;;;;;;;20.25;59.21;99907.88;5024759;28;20286;-57
2023/06/20 03:26:09;;;;;;;4.83;1.20;;;;;;;20.21;57.54;99895.75;5018391;28;20748;-58
2023/06/20 03:28:39;;;;;;;5.90;1.33;;;;;;;20.15;57.51;99875.78;5009880;28;20291;-57
2023/06/20 03:31:10;;;;;;;4.53;1.10;;;;;;;19.78;56.80;99851.50;5018003;28;20337;-57
2023/06/20 03:33:40;;;;;;;2.87;1.20;;;;;;;20.07;57.86;99899.28;5002649;28;20292;-57
2023/06/20 03:36:12;;;;;;;2.90;1.10;;;;;;;19.99;58.44;99898.88;5019537;28;20797;-56
2023/06/20 03:38:43;;;;;;;5.47;1.27;;;;;;;20.06;58.99;99886.94;5024648;28;20305;-59
2023/06/20 03:41:15;;;;;;;1.40;0.97;;;;;;;20.39;58.21;99904.34;5044637;28;20366;-57
2023/06/20 03:43:46;;;;;;;3.87;1.40;;;;;;;20.39;57.75;99904.34;5040145;28;20293;-57
2023/06/20 03:46:16;;;;;;;2.80;1.20;;;;;;;20.38;56.93;99902.66;5044187;28;20275;-59
2023/06/20 03:48:47;;;;;;;6.97;1.50;;;;;;;20.30;59.01;99894.34;5034338;28;20453;-58
2023/06/20 03:51:17;;;;;;;3.60;1.20;;;;;;;20.10;61.62;99893.78;5044958;28;20754;-58
2023/06/20 03:53:48;;;;;;;3.87;1.40;;;;;;;20.21;60.57;99891.28;5035048;28;20362;-59
2023/06/20 03:56:20;;;;;;;11.13;1.90;;;;;;;19.94;60.13;99842.63;5044758;28;20290;-57
2023/06/20 03:58:51;;;;;;;4.50;1.60;;;;;;;20.40;60.44;99898.13;5034630;28;20369;-58
2023/06/20 04:01:24;;;;;;;6.93;1.77;;;;;;;20.36;60.31;99899.25;5044692;28;20306;-58
2023/06/20 04:03:56;;;;;;;4.63;1.30;;;;;;;20.36;59.45;99870.06;5033283;28;21001;-57
2023/06/20 04:06:30;;;;;;;5.30;1.50;;;;;;;20.30;59.20;99873.13;5033902;28;20314;-58
2023/06/20 04:09:00;;;;;;;8.53;1.23;;;;;;;20.43;60.01;99901.41;5015802;28;20284;-57
2023/06/20 04:11:32;;;;;;;4.37;1.50;;;;;;;20.40;59.62;99900.78;5021431;28;20745;-58
2023/06/20 04:14:03;;;;;;;8.80;1.43;;;;;;;20.16;58.51;99888.06;5034012;28;20305;-60
2023/06/20 04:16:33;;;;;;;11.47;1.50;;;;;;;20.27;59.46;99890.06;5038029;28;20706;-57
2023/06/20 04:19:04;;;;;;;4.43;1.40;;;;;;;20.26;61.07;99898.97;5045098;28;20314;-57
2023/06/20 04:21:35;;;;;;;5.97;1.60;;;;;;;20.44;60.47;99896.94;5034685;28;20313;-58
2023/06/20 04:24:06;;;;;;;7.77;1.67;;;;;;;20.34;59.33;99901.97;5042896;27;20373;-57
2023/06/20 04:26:38;;;;;;;10.27;2.10;;;;;;;20.14;59.64;99916.50;5033950;28;20294;-58
2023/06/20 04:29:09;;;;;;;7.87;1.70;;;;;;;20.22;62.08;99914.22;5043832;28;20310;-58
2023/06/20 04:31:42;;;;;;;6.23;1.70;;;;;;;20.20;61.33;99899.38;5044023;28;20791;-59
2023/06/20 04:34:13;;;;;;;15.67;2.37;;;;;;;20.42;61.11;99904.19;5037559;28;20386;-57
2023/06/20 04:36:44;;;;;;;8.97;1.70;;;;;;;20.33;58.97;99894.13;5029766;28;21077;-57
2023/06/20 04:39:15;;;;;;;7.73;2.17;;;;;;;20.21;59.00;99904.56;5040469;28;20283;-58
2023/06/20 04:41:47;;;;;;;2.43;1.20;;;;;;;20.17;60.89;99905.72;5030184;28;20295;-57
2023/06/20 04:44:19;;;;;;;2.37;1.77;;;;;;;20.24;61.03;99907.03;5039183;28;20365;-58
2023/06/20 04:46:50;;;;;;;6.87;1.53;;;;;;;20.33;59.74;99904.75;5030225;28;20287;-59
2023/06/20 04:49:20;;;;;;;3.10;1.63;;;;;;;20.32;60.58;99909.22;5040974;28;20316;-58
2023/06/20 04:51:51;;;;;;;5.13;1.70;;;;;;;20.09;61.36;99917.72;5030202;28;20282;-57
2023/06/20 04:54:21;;;;;;;5.33;1.60;;;;;;;20.32;61.06;99911.88;5040517;28;20673;-59
2023/06/20 04:56:54;;;;;;;8.47;1.70;;;;;;;20.38;60.00;99918.59;5030547;28;21550;-58
2023/06/20 04:59:24;;;;;;;6.50;1.50;;;;;;;20.39;60.75;99915.84;5040168;28;20386;-58
2023/06/20 05:01:55;;;;;;;6.53;1.40;;;;;;;20.29;59.06;99921.81;5029799;28;20282;-58
2023/06/20 05:04:26;;;;;;;5.40;1.73;;;;;;;20.37;60.87;99927.50;5041012;28;20283;-58
2023/06/20 05:06:57;;;;;;;7.73;2.00;;;;;;;20.30;60.03;99923.53;5029864;28;20298;-56
2023/06/20 05:09:28;;;;;;;6.07;1.73;;;;;;;20.24;59.04;99922.97;5037304;28;20275;-57
2023/06/20 05:12:00;;;;;;;5.07;2.00;;;;;;;20.25;59.28;99922.00;5026633;28;20508;-59
2023/06/20 05:14:34;;;;;;;7.27;1.40;;;;;;;20.14;58.28;99927.09;5031694;28;20319;-58
2023/06/20 05:17:05;;;;;;;8.23;2.40;;;;;;;20.02;61.18;99922.56;5039112;28;20291;-57
2023/06/20 05:19:35;;;;;;;4.17;1.73;;;;;;;20.05;60.84;99919.72;5029554;28;20677;-56
2023/06/20 05:22:06;;;;;;;10.13;1.80;;;;;;;20.00;59.78;99919.16;5040032;28;20295;-58
2023/06/20 05:24:37;;;;;;;6.10;1.57;;;;;;;19.83;60.58;99918.38;5029363;28;20352;-57
2023/06/20 05:27:09;;;;;;;2.67;1.47;;;;;;;19.74;61.01;99931.31;5038948;28;20359;-57
2023/06/20 05:29:40;;;;;;;3.60;1.70;;;;;;;19.59;60.51;99925.09;5028768;28;20311;-58
2023/06/20 05:32:11;;;;;;;4.47;1.57;;;;;;;19.40;61.85;99925.34;5038703;28;20291;-58
2023/06/20 05:34:41;;;;;;;5.73;2.17;;;;;;;19.28;61.80;99926.91;5029273;28;20291;-58
2023/06/20 05:37:13;;;;;;;8.13;2.10;;;;;;;19.07;62.42;99938.72;5037524;28;20291;-58
2023/06/20 05:39:43;;;;;;;7.83;2.10;;;;;;;18.73;63.22;99919.41;5029480;28;20336;-57
2023/06/20 05:42:16;;;;;;;5.43;2.10;;;;;;;18.37;63.45;99891.41;5039407;28;20318;-58
2023/06/20 05:44:47;;;;;;;6.80;2.70;;;;;;;18.56;64.10;99928.28;5028967;28;20822;-57
2023/06/20 05:47:18;;;;;;;4.00;1.40;;;;;;;18.53;63.63;99928.44;5039400;28;20351;-58
2023/06/20 05:49:49;;;;;;;19.30;2.50;;;;;;;18.37;64.41;99944.31;5029124;28;20327;-57
2023/06/20 05:52:21;;;;;;;3.10;1.93;;;;;;;18.30;64.28;99940.28;5039642;28;20310;-59
2023/06/20 05:54:53;;;;;;;4.00;1.70;;;;;;;18.17;65.34;99941.84;5031462;28;20381;-58
2023/06/20 05:57:25;;;;;;;3.43;1.50;;;;;;;17.97;64.89;99938.47;5043453;28;20363;-59
2023/06/20 05:59:56;;;;;;;7.93;1.70;;;;;;;18.05;65.41;99944.22;5032895;28;20271;-59
2023/06/20 06:02:27;;;;;;;4.33;1.40;;;;;;;18.01;65.35;99950.59;5043279;28;20661;-58
2023/06/20 06:04:58;;;;;;;6.17;1.30;;;;;;;17.98;65.38;99953.41;5033082;28;20287;-56
2023/06/20 06:07:30;;;;;;;2.80;1.27;;;;;;;18.02;65.91;99957.59;5043491;28;20606;-58
2023/06/20 06:10:00;;;;;;;7.87;1.53;;;;;;;17.99;65.31;99959.53;5032254;28;20298;-57
2023/06/20 06:12:32;;;;;;;6.67;2.17;;;;;;;17.79;66.11;99931.44;5042783;28;20745;-60
2023/06/20 06:15:03;;;;;;;7.90;1.90;;;;;;;18.30;65.94;99969.38;5030885;28;20761;-58
2023/06/20 06:17:33;;;;;;;17.00;4.50;;;;;;;18.66;66.77;99987.69;5035944;28;20307;-58
2023/06/20 06:20:09;;;;;;;14.60;7.83;;;;;;;19.08;65.10;99982.81;5042266;28;20287;-57
2023/06/20 06:22:41;;;;;;;3.77;2.20;;;;;;;19.60;63.02;99979.81;5031477;28;20317;-59
2023/06/20 06:25:11;;;;;;;6.07;1.73;;;;;;;19.70;61.34;99981.03;5041546;28;20356;-59
2023/06/20 06:27:43;;;;;;;5.63;1.43;;;;;;;19.72;60.21;99976.50;5031387;28;20283;-58
2023/06/20 06:30:15;;;;;;;2.40;1.53;;;;;;;19.47;59.78;99978.81;5041688;28;20298;-58
2023/06/20 06:32:48;;;;;;;4.20;1.90;;;;;;;19.28;60.84;99969.28;5031507;28;20393;-56
2023/06/20 06:35:19;;;;;;;3.40;1.83;;;;;;;19.44;62.77;99968.38;5041558;28;21368;-58
2023/06/20 06:37:50;;;;;;;3.40;1.30;;;;;;;19.52;61.74;99966.13;5030490;28;20307;-56
2023/06/20 06:40:21;;;;;;;3.73;1.30;;;;;;;19.45;60.62;99964.81;5041881;28;20330;-57
2023/06/20 06:42:54;;;;;;;4.80;1.37;;;;;;;19.31;61.25;99963.81;5021789;28;20273;-57
2023/06/20 06:45:25;;;;;;;6.17;1.90;;;;;;;19.63;61.21;99953.13;5041770;28;20369;-58
2023/06/20 06:47:56;;;;;;;9.13;1.53;;;;;;;20.00;61.05;99953.63;5031254;28;20291;-58
2023/06/20 06:50:27;;;;;;;4.03;1.63;;;;;;;20.07;59.13;99954.97;5041502;28;20282;-57
2023/06/20 06:52:57;;;;;;;2.50;1.20;;;;;;;19.82;59.12;99948.50;5028476;28;20289;-56
2023/06/20 06:55:28;;;;;;;2.67;1.10;;;;;;;19.61;60.32;99917.91;5041772;28;20390;-57
2023/06/20 06:58:00;;;;;;;3.30;1.50;;;;;;;19.42;60.19;99965.84;5027069;28;20293;-57
2023/06/20 07:00:32;;;;;;;6.00;1.53;;;;;;;19.27;61.36;99946.41;5041342;28;20348;-57
2023/06/20 07:03:03;;;;;;;7.53;1.40;;;;;;;19.42;60.50;99964.97;5030370;28;20394;-57
2023/06/20 07:05:33;;;;;;;4.90;1.50;;;;;;;19.38;60.94;99959.84;5035449;28;20283;-57
2023/06/20 07:08:04;;;;;;;4.73;2.03;;;;;;;19.58;62.57;99955.19;5041521;28;20291;-57
2023/06/20 07:10:35;;;;;;;5.20;1.47;;;;;;;19.81;61.49;99962.66;5029772;28;20366;-57
2023/06/20 07:13:07;;;;;;;3.27;1.33;;;;;;;19.71;61.47;99958.88;5038706;28;20301;-57
2023/06/20 07:15:37;;;;;;;5.37;1.40;;;;;;;19.46;61.11;99961.22;5028355;28;20363;-57
2023/06/20 07:18:09;;;;;;;4.00;1.53;;;;;;;19.20;60.69;99955.63;5039621;28;20325;-57
2023/06/20 07:20:39;;;;;;;9.03;1.97;;;;;;;19.16;61.71;99965.53;5030836;28;20287;-57
2023/06/20 07:23:10;;;;;;;6.50;1.73;;;;;;;19.16;62.43;99959.38;5040964;28;20287;-58
2023/06/20 07:25:40;;;;;;;6.23;1.30;;;;;;;19.08;60.89;99961.63;5029990;28;20285;-57
2023/06/20 07:28:13;;;;;;;4.03;1.60;;;;;;;18.70;61.69;99909.00;5040930;28;20374;-58
2023/06/20 07:30:43;;;;;;;2.93;1.60;;;;;;;19.21;61.96;99957.31;5021972;28;20762;-57
2023/06/20 07:33:14;;;;;;;3.00;1.40;;;;;;;19.20;61.53;99958.28;5039998;28;20302;-58
2023/06/20 07:35:44;;;;;;;7.97;1.20;;;;;;;19.22;61.62;99963.47;5030078;28;20283;-57
2023/06/20 07:38:16;;;;;;;5.63;1.53;;;;;;;19.17;61.96;99961.09;5041084;28;20290;-57
2023/06/20 07:40:48;;;;;;;7.10;2.03;;;;;;;18.96;61.89;99958.69;5029738;28;20364;-58
2023/06/20 07:43:24;;;;;;;2.13;1.10;;;;;;;18.94;62.45;99954.44;5040891;28;21073;-57
2023/06/20 07:45:57;;;;;;;4.47;1.10;;;;;;;19.05;62.68;99956.50;5030395;28;20283;-57
2023/06/20 07:48:28;;;;;;;5.80;1.50;;;;;;;19.11;61.94;99949.03;5040193;28;20294;-57
2023/06/20 07:50:58;;;;;;;4.83;1.40;;;;;;;19.26;61.65;99963.22;5029762;28;20287;-58
2023/06/20 07:53:29;;;;;;;10.27;1.87;;;;;;;19.40;61.70;99957.97;5040189;28;20290;-58
2023/06/20 07:56:00;;;;;;;2.00;1.13;;;;;;;19.36;61.54;99963.53;5029789;28;20297;-58
2023/06/20 07:58:32;;;;;;;7.43;1.20;;;;;;;19.34;61.17;99963.63;5041165;28;20287;-57
2023/06/20 08:01:03;;;;;;;3.53;1.50;;;;;;;19.29;61.80;99933.88;5029201;28;20748;-58
2023/06/20 08:03:33;;;;;;;2.63;1.20;;;;;;;19.50;61.27;99968.06;5033736;28;20282;-57
2023/06/20 08:06:06;;;;;;;3.17;1.27;;;;;;;19.34;60.82;99965.41;5039474;28;20972;-58
2023/06/20 08:08:36;;;;;;;2.13;1.30;;;;;;;19.29;61.29;99970.97;5028832;28;20283;-58
2023/06/20 08:11:07;;;;;;;5.60;1.30;;;;;;;18.91;61.29;99913.09;5039963;28;20322;-58
2023/06/20 08:13:39;;;;;;;4.03;1.33;;;;;;;19.14;62.11;99955.97;5029498;28;20313;-58
2023/06/20 08:16:10;;;;;;;6.17;1.53;;;;;;;19.23;62.25;99955.44;5040565;28;20403;-58
2023/06/20 08:18:41;;;;;;;6.90;1.40;;;;;;;19.49;61.13;99971.63;5043631;28;21164;-59
2023/06/20 08:21:12;;;;;;;3.60;1.27;;;;;;;19.56;60.82;99983.59;5039101;28;20356;-57
2023/06/20 08:23:44;;;;;;;8.00;1.50;;;;;;;19.51;61.58;99985.66;5029346;28;20290;-57
2023/06/20 08:26:15;;;;;;;11.03;1.67;;;;;;;19.57;62.28;99982.66;5040038;28;20282;-58
2023/06/20 08:28:47;;;;;;;7.07;1.57;;;;;;;19.40;61.69;100002.16;5029593;28;20278;-59
2023/06/20 08:31:18;;;;;;;7.40;1.80;;;;;;;19.44;62.00;99993.09;5040050;28;20369;-58
2023/06/20 08:33:50;;;;;;;10.77;1.80;;;;;;;19.52;63.19;99974.09;5029505;28;20603;-58
2023/06/20 08:36:21;;;;;;;7.03;1.73;;;;;;;19.55;62.33;99993.34;5039744;28;20772;-58
2023/06/20 08:38:52;;;;;;;8.77;1.60;;;;;;;19.44;61.61;99997.53;5029555;28;21658;-57
2023/06/20 08:41:26;;;;;;;11.40;1.90;;;;;;;19.50;63.01;99999.84;5039970;28;20301;-58
2023/06/20 08:43:59;;;;;;;5.77;1.67;;;;;;;19.31;61.81;99979.69;5028810;28;20279;-58
2023/06/20 08:46:31;;;;;;;5.97;1.47;;;;;;;19.49;62.82;100012.22;5039524;28;20348;-59
2023/06/20 08:49:02;;;;;;;13.57;2.40;;;;;;;19.47;61.92;100015.91;5028680;28;20287;-57
2023/06/20 08:51:37;;;;;;;10.27;1.40;;;;;;;19.39;62.38;100011.03;5035006;28;20314;-58
2023/06/20 08:54:13;;;;;;;10.07;1.10;;;;;;;19.45;62.17;100009.88;5038997;28;20323;-58
2023/06/20 08:56:44;;;;;;;2.20;1.17;;;;;;;19.43;61.47;100025.00;5028712;28;20381;-57
2023/06/20 08:59:17;;;;;;;4.00;1.60;;;;;;;19.57;63.06;100017.13;5039265;28;20305;-57
2023/06/20 09:02:00;;;;;;;9.93;1.60;;;;;;;19.47;62.03;100026.50;5027948;28;20298;-57
2023/06/20 09:04:36;;;;;;;3.60;1.30;;;;;;;19.22;61.70;100021.75;5027656;28;20293;-59
2023/06/20 09:07:19;;;;;;;6.73;1.50;;;;;;;18.41;63.11;99960.84;5039292;28;20479;-58
2023/06/20 09:09:50;;;;;;;5.23;1.60;;;;;;;18.84;62.98;100033.50;5027795;28;20378;-58
2023/06/20 09:12:22;;;;;;;3.70;1.70;;;;;;;18.65;63.17;100038.06;5038379;28;20294;-56
2023/06/20 09:14:56;;;;;;;5.13;1.50;;;;;;;18.77;63.57;100044.50;5009449;28;20417;-57
2023/06/20 09:17:28;;;;;;;5.67;1.37;;;;;;;18.53;63.02;100040.41;5018896;28;20307;-58
2023/06/20 09:20:00;;;;;;;5.73;1.17;;;;;;;18.45;63.43;100047.91;5008940;28;20397;-57
2023/06/20 09:22:32;;;;;;;2.97;1.30;;;;;;;18.26;63.72;100052.44;5019290;28;20319;-58
2023/06/20 09:25:05;;;;;;;5.90;2.00;;;;;;;18.00;64.35;100041.41;4992297;28;20279;-58
2023/06/20 09:27:37;;;;;;;4.27;2.13;;;;;;;18.18;65.42;100054.63;5008324;28;20283;-56
2023/06/20 09:30:12;;;;;;;8.50;2.03;;;;;;;17.76;64.67;100021.47;5018213;28;20311;-59
2023/06/20 09:32:44;;;;;;;3.83;1.80;;;;;;;17.86;65.67;100059.75;5008940;28;20631;-58
2023/06/20 09:35:17;;;;;;;8.37;1.77;;;;;;;17.79;65.48;100063.59;5018700;28;20337;-58
2023/06/20 09:37:50;;;;;;;12.50;2.50;;;;;;;17.51;65.95;100064.94;5008560;28;20436;-58
2023/06/20 09:40:22;;;;;;;7.80;2.20;;;;;;;17.34;66.79;100067.53;5019002;28;20306;-58
2023/06/20 09:42:59;;;;;;;13.67;3.53;;;;;;;17.26;67.03;100070.53;5009224;28;20277;-58
2023/06/20 09:45:32;;;;;;;4.97;1.70;;;;;;;17.17;67.58;100077.13;5019092;28;20430;-58
2023/06/20 09:48:05;;;;;;;9.87;1.60;;;;;;;16.96;68.67;100022.66;5008749;28;20685;-59
2023/06/20 09:50:39;;;;;;;9.00;2.30;;;;;;;17.35;68.32;100074.53;5009101;28;20275;-58
2023/06/20 09:53:21;;;;;;;5.37;2.03;;;;;;;17.21;67.88;100051.41;5018848;28;20302;-58
2023/06/20 09:55:54;;;;;;;5.87;1.63;;;;;;;17.16;67.86;100074.53;5008634;28;20287;-58
2023/06/20 09:58:27;;;;;;;5.90;1.50;;;;;;;16.80;67.83;100073.53;5019434;28;20287;-59
2023/06/20 10:01:02;;;;;;;3.43;1.87;;;;;;;15.93;69.57;100022.78;5008465;28;20350;-60
2023/06/20 10:03:35;;;;;;;5.17;1.77;;;;;;;15.89;70.72;100081.78;5013405;28;20294;-59
2023/06/20 10:06:08;;;;;;;4.60;2.00;;;;;;;15.50;72.35;100087.72;5019018;28;20333;-58
2023/06/20 10:08:44;;;;;;;3.97;1.87;;;;;;;15.39;73.65;100084.66;5009284;28;20390;-59
2023/06/20 10:11:19;;;;;;;8.90;1.80;;;;;;;15.32;74.64;100088.44;5019152;28;20291;-59
2023/06/20 10:13:51;;;;;;;6.37;2.37;;;;;;;15.17;74.88;100094.28;5010090;28;20291;-58
2023/06/20 10:16:29;;;;;;;8.30;1.97;;;;;;;15.04;75.54;100114.94;5038941;28;20336;-58
2023/06/20 10:19:17;;;;;;;9.97;2.20;;;;;;;14.91;76.74;100125.06;5028532;28;20286;-59
2023/06/20 10:21:59;;;;;;;7.87;2.13;;;;;;;14.64;76.90;100119.88;5028318;28;20344;-59
2023/06/20 10:24:30;;;;;;;;;;;;;;;14.48;77.66;100121.31;5039578;28;20344;-59
2023/06/20 10:27:04;;;;;;;7.83;1.97;;;;;;;14.30;78.19;100127.19;5016471;28;19928;-59
2023/06/20 10:29:42;;;;;;;6.50;2.30;;;;;;;13.93;78.85;100103.00;5028714;28;20278;-58
2023/06/20 10:32:16;;;;;;;4.73;1.90;;;;;;;14.15;79.47;100129.44;5038784;28;20283;-59
2023/06/20 10:34:52;;;;;;;2.43;1.90;;;;;;;14.01;80.16;100111.47;5028457;28;20297;-58
2023/06/20 10:37:40;;;;;;;3.00;1.70;;;;;;;14.21;80.65;100138.88;5039767;28;20374;-57
2023/06/20 10:40:31;;;;;;;7.60;1.93;;;;;;;13.86;80.68;100100.63;5028992;28;21142;-57
2023/06/20 10:43:07;;;;;;;3.93;2.03;;;;;;;14.14;81.74;100153.97;5010879;28;20295;-57
2023/06/20 10:45:43;;;;;;;4.67;2.47;;;;;;;13.93;81.91;100149.44;5028670;28;20303;-57
2023/06/20 10:48:16;;;;;;;8.43;2.30;;;;;;;13.76;81.78;100158.69;5042374;28;20374;-57
2023/06/20 10:50:47;;;;;;;8.37;2.57;;;;;;;13.63;82.43;100162.63;5032026;28;20286;-57
2023/06/20 10:53:20;;;;;;;16.30;3.20;;;;;;;13.54;83.14;100168.13;5042371;28;20290;-57
2023/06/20 10:55:51;;;;;;;10.23;2.70;;;;;;;13.41;83.93;100161.53;5031796;28;20294;-57
2023/06/20 10:58:23;;;;;;;7.03;2.93;;;;;;;13.40;84.52;100175.53;5042581;28;20286;-57
2023/06/20 11:01:02;;;;;;;10.30;2.65;;;;;;;13.30;84.44;100178.44;5031690;28;20291;-56
2023/06/20 11:03:35;;;;;;;7.43;2.43;;;;;;;13.11;84.94;100177.22;5038616;28;20495;-57
2023/06/20 11:06:07;;;;;;;8.03;2.20;;;;;;;13.12;86.12;100181.56;5041946;28;20332;-57
2023/06/20 11:08:44;;;;;;;6.50;2.90;;;;;;;13.10;87.00;100178.09;5031930;28;20286;-57
2023/06/20 11:11:16;;;;;;;6.07;2.72;;;;;;;12.96;87.50;100160.16;5041716;28;20274;-57
2023/06/20 11:13:47;;;;;;;6.13;2.80;;;;;;;13.01;87.65;100179.25;5031700;28;20052;-56
2023/06/20 11:16:22;;;;;;;11.93;3.65;;;;;;;12.73;88.12;100142.44;5041992;28;20290;-57
2023/06/20 11:18:59;;;;;;;11.83;3.63;;;;;;;12.94;88.04;100188.19;5031971;28;20053;-57
2023/06/20 11:21:31;;;;;;;8.55;3.10;;;;;;;12.89;87.98;100196.16;5041491;28;20279;-56
2023/06/20 11:24:03;;;;;;;12.10;4.43;;;;;;;12.76;88.21;100205.28;5031262;28;20083;-57
2023/06/20 11:26:35;;;;;;;9.73;4.85;;;;;;;12.37;88.78;100165.22;5035519;28;20149;-56
2023/06/20 11:29:07;;;;;;;13.27;5.00;;;;;;;12.45;89.75;100206.03;5041460;28;20513;-56
2023/06/20 11:31:44;;;;;;;13.20;5.22;;;;;;;12.49;90.48;100215.56;5031572;28;20057;-57
2023/06/20 11:34:17;;;;;;;14.20;4.82;;;;;;;12.50;91.12;100216.41;5041949;28;20052;-57
2023/06/20 11:36:52;;;;;;;12.77;5.68;;;;;;;12.47;91.28;100214.72;5031213;28;20935;-57
2023/06/20 11:39:25;;;;;;;11.80;4.15;;;;;;;12.43;92.08;100220.97;5041240;28;20052;-56
2023/06/20 11:41:56;;;;;;;16.92;5.55;;;;;;;12.55;92.56;100226.78;5030987;28;20052;-58
2023/06/20 11:44:29;;;;;;;16.13;6.13;;;;;;;12.59;92.59;100221.44;5041337;28;20056;-57
2023/06/20 11:47:01;;;;;;;10.40;4.88;;;;;;;12.64;92.64;100221.31;5031229;28;20062;-56
2023/06/20 11:49:36;;;;;;;11.30;4.35;;;;;;;12.70;93.16;100226.38;5041121;28;20079;-56
2023/06/20 11:52:08;;;;;;;10.65;4.38;;;;;;;12.62;93.76;100207.38;5038195;28;20050;-57
2023/06/20 11:54:50;;;;;;;9.07;4.43;;;;;;;12.63;93.46;100204.72;5028881;28;20044;-57